sensor_id;sensor_type;location;lat;lon;timestamp;pressure;altitude;pressure_sealevel;temperature;humidity
74675;BME280;63200;48.810;12.352;2022-12-18T00:03:56;98779.00;;;-5.45;77.80
74675;BME280;63200;48.810;12.352;2022-12-18T00:06:23;98777.03;;;-5.43;77.97
74675;BME280;63200;48.810;12.352;2022-12-18T00:08:49;98782.19;;;-5.42;77.74
74675;BME280;63200;48.810;12.352;2022-12-18T00:11:16;98774.09;;;-5.40;77.99
74675;BME280;63200;48.810;12.352;2022-12-18T00:13:42;98781.00;;;-5.57;77.68
74675;BME280;63200;48.810;12.352;2022-12-18T00:16:13;98774.81;;;-5.66;78.26
74675;BME280;63200;48.810;12.352;2022-12-18T00:18:39;98769.47;;;-5.56;78.36
74675;BME280;63200;48.810;12.352;2022-12-18T00:21:07;98758.72;;;-5.55;78.06
74675;BME280;63200;48.810;12.352;2022-12-18T00:23:34;98724.22;;;-5.81;78.27
74675;BME280;63200;48.810;12.352;2022-12-18T00:26:01;98724.53;;;-5.84;78.36
74675;BME280;63200;48.810;12.352;2022-12-18T00:28:26;98762.09;;;-5.62;78.25
74675;BME280;63200;48.810;12.352;2022-12-18T00:31:09;98773.63;;;-5.54;78.47
74675;BME280;63200;48.810;12.352;2022-12-18T00:33:36;98764.31;;;-5.58;78.23
74675;BME280;63200;48.810;12.352;2022-12-18T00:36:06;98779.50;;;-5.60;78.50
74675;BME280;63200;48.810;12.352;2022-12-18T00:38:32;98785.78;;;-5.61;78.77
74675;BME280;63200;48.810;12.352;2022-12-18T00:40:57;98783.41;;;-5.82;79.03
74675;BME280;63200;48.810;12.352;2022-12-18T00:43:23;98783.78;;;-5.77;79.12
74675;BME280;63200;48.810;12.352;2022-12-18T00:45:48;98788.63;;;-5.72;78.70
74675;BME280;63200;48.810;12.352;2022-12-18T00:48:14;98796.09;;;-5.68;78.89
74675;BME280;63200;48.810;12.352;2022-12-18T00:50:39;98795.84;;;-5.64;78.86
74675;BME280;63200;48.810;12.352;2022-12-18T00:53:04;98753.53;;;-5.92;78.67
74675;BME280;63200;48.810;12.352;2022-12-18T00:55:31;98738.63;;;-5.93;78.56
74675;BME280;63200;48.810;12.352;2022-12-18T00:57:56;98808.47;;;-5.58;78.53
74675;BME280;63200;48.810;12.352;2022-12-18T01:00:22;98807.63;;;-5.59;78.88
74675;BME280;63200;48.810;12.352;2022-12-18T01:02:47;98804.34;;;-5.71;78.99
74675;BME280;63200;48.810;12.352;2022-12-18T01:05:13;98799.31;;;-5.64;79.21
74675;BME280;63200;48.810;12.352;2022-12-18T01:07:39;98766.34;;;-5.97;78.94
74675;BME280;63200;48.810;12.352;2022-12-18T01:10:06;98812.09;;;-5.59;79.13
74675;BME280;63200;48.810;12.352;2022-12-18T01:12:32;98809.31;;;-5.58;78.70
74675;BME280;63200;48.810;12.352;2022-12-18T01:14:58;98774.19;;;-5.78;78.79
74675;BME280;63200;48.810;12.352;2022-12-18T01:17:23;98684.47;;;-6.35;78.82
74675;BME280;63200;48.810;12.352;2022-12-18T01:19:49;98814.59;;;-5.58;78.71
74675;BME280;63200;48.810;12.352;2022-12-18T01:22:15;98761.16;;;-5.89;78.66
74675;BME280;63200;48.810;12.352;2022-12-18T01:24:40;98775.59;;;-5.83;79.08
74675;BME280;63200;48.810;12.352;2022-12-18T01:27:06;98805.00;;;-5.87;79.65
74675;BME280;63200;48.810;12.352;2022-12-18T01:29:31;98809.31;;;-5.86;79.81
74675;BME280;63200;48.810;12.352;2022-12-18T01:31:57;98770.31;;;-6.01;79.77
74675;BME280;63200;48.810;12.352;2022-12-18T01:34:23;98819.44;;;-5.81;79.82
74675;BME280;63200;48.810;12.352;2022-12-18T01:36:49;98828.25;;;-5.62;79.71
74675;BME280;63200;48.810;12.352;2022-12-18T01:39:17;98828.50;;;-5.56;79.54
74675;BME280;63200;48.810;12.352;2022-12-18T01:41:43;98821.56;;;-5.57;79.31
74675;BME280;63200;48.810;12.352;2022-12-18T01:49:57;98799.09;;;-5.53;79.18
74675;BME280;63200;48.810;12.352;2022-12-18T01:52:26;98810.59;;;-5.62;79.58
74675;BME280;63200;48.810;12.352;2022-12-18T01:54:54;98775.16;;;-5.79;79.48
74675;BME280;63200;48.810;12.352;2022-12-18T01:57:20;98812.03;;;-5.49;79.43
74675;BME280;63200;48.810;12.352;2022-12-18T01:59:50;98810.50;;;-5.52;79.67
74675;BME280;63200;48.810;12.352;2022-12-18T02:02:17;98809.44;;;-5.59;79.79
74675;BME280;63200;48.810;12.352;2022-12-18T02:04:43;98790.78;;;-5.58;79.51
74675;BME280;63200;48.810;12.352;2022-12-18T02:07:14;98821.69;;;-5.30;79.06
74675;BME280;63200;48.810;12.352;2022-12-18T02:09:47;98822.72;;;-5.23;79.07
74675;BME280;63200;48.810;12.352;2022-12-18T02:12:17;98829.47;;;-5.29;78.60
74675;BME280;63200;48.810;12.352;2022-12-18T02:14:53;98835.81;;;-5.22;78.53
74675;BME280;63200;48.810;12.352;2022-12-18T02:17:22;98827.94;;;-5.13;78.64
74675;BME280;63200;48.810;12.352;2022-12-18T02:20:15;98833.00;;;-5.20;78.26
74675;BME280;63200;48.810;12.352;2022-12-18T02:26:27;98836.22;;;-4.98;78.25
74675;BME280;63200;48.810;12.352;2022-12-18T02:29:13;98821.16;;;-4.98;77.80
74675;BME280;63200;48.810;12.352;2022-12-18T02:31:45;98801.47;;;-5.13;77.61
74675;BME280;63200;48.810;12.352;2022-12-18T02:34:13;98824.31;;;-5.12;77.76
74675;BME280;63200;48.810;12.352;2022-12-18T02:36:41;98830.13;;;-5.27;78.19
74675;BME280;63200;48.810;12.352;2022-12-18T02:39:10;98796.94;;;-5.39;78.16
74675;BME280;63200;48.810;12.352;2022-12-18T02:41:36;98796.09;;;-5.40;78.18
74675;BME280;63200;48.810;12.352;2022-12-18T02:44:12;98825.91;;;-5.20;78.32
74675;BME280;63200;48.810;12.352;2022-12-18T02:46:41;98837.94;;;-5.25;77.79
74675;BME280;63200;48.810;12.352;2022-12-18T02:49:34;98836.16;;;-5.35;78.07
74675;BME280;63200;48.810;12.352;2022-12-18T02:57:47;98821.41;;;-5.55;78.25
74675;BME280;63200;48.810;12.352;2022-12-18T03:00:18;98818.41;;;-5.42;78.34
74675;BME280;63200;48.810;12.352;2022-12-18T03:02:53;98845.63;;;-5.32;78.35
74675;BME280;63200;48.810;12.352;2022-12-18T03:05:25;98821.31;;;-5.63;78.14
74675;BME280;63200;48.810;12.352;2022-12-18T03:07:57;98856.34;;;-5.52;78.54
74675;BME280;63200;48.810;12.352;2022-12-18T03:10:27;98818.44;;;-5.70;78.32
74675;BME280;63200;48.810;12.352;2022-12-18T03:13:03;98845.13;;;-5.63;78.25
74675;BME280;63200;48.810;12.352;2022-12-18T03:15:34;98850.38;;;-5.54;77.87
74675;BME280;63200;48.810;12.352;2022-12-18T03:18:17;98837.31;;;-5.65;78.30
74675;BME280;63200;48.810;12.352;2022-12-18T03:20:45;98770.16;;;-6.00;78.45
74675;BME280;63200;48.810;12.352;2022-12-18T03:23:16;98805.44;;;-5.63;77.87
74675;BME280;63200;48.810;12.352;2022-12-18T03:25:44;98843.00;;;-5.60;78.35
74675;BME280;63200;48.810;12.352;2022-12-18T03:28:13;98836.81;;;-5.69;78.61
74675;BME280;63200;48.810;12.352;2022-12-18T03:30:41;98800.16;;;-5.91;78.61
74675;BME280;63200;48.810;12.352;2022-12-18T03:33:21;98832.88;;;-5.64;78.70
74675;BME280;63200;48.810;12.352;2022-12-18T03:35:49;98809.22;;;-5.66;78.40
74675;BME280;63200;48.810;12.352;2022-12-18T03:38:15;98810.50;;;-5.70;78.54
74675;BME280;63200;48.810;12.352;2022-12-18T03:46:15;98854.50;;;-5.23;77.73
74675;BME280;63200;48.810;12.352;2022-12-18T03:48:45;98840.88;;;-5.28;77.35
74675;BME280;63200;48.810;12.352;2022-12-18T03:54:40;98823.50;;;-5.13;77.37
74675;BME280;63200;48.810;12.352;2022-12-18T04:00:14;98824.19;;;-5.29;77.41
74675;BME280;63200;48.810;12.352;2022-12-18T04:02:44;98786.13;;;-5.46;77.42
74675;BME280;63200;48.810;12.352;2022-12-18T04:05:11;98788.75;;;-5.46;76.80
74675;BME280;63200;48.810;12.352;2022-12-18T04:07:38;98795.19;;;-5.48;77.29
74675;BME280;63200;48.810;12.352;2022-12-18T04:10:06;98833.25;;;-5.31;77.54
74675;BME280;63200;48.810;12.352;2022-12-18T04:12:32;98822.94;;;-5.35;77.64
74675;BME280;63200;48.810;12.352;2022-12-18T04:14:57;98841.09;;;-5.40;77.81
74675;BME280;63200;48.810;12.352;2022-12-18T04:17:22;98789.44;;;-5.72;77.88
74675;BME280;63200;48.810;12.352;2022-12-18T04:19:48;98844.50;;;-5.29;77.65
74675;BME280;63200;48.810;12.352;2022-12-18T04:22:14;98861.25;;;-5.29;77.53
74675;BME280;63200;48.810;12.352;2022-12-18T04:24:39;98866.81;;;-5.32;77.51
74675;BME280;63200;48.810;12.352;2022-12-18T04:27:05;98818.69;;;-5.63;77.78
74675;BME280;63200;48.810;12.352;2022-12-18T04:29:30;98859.31;;;-5.37;78.01
74675;BME280;63200;48.810;12.352;2022-12-18T04:31:56;98866.72;;;-5.40;77.76
74675;BME280;63200;48.810;12.352;2022-12-18T04:34:21;98810.69;;;-5.81;77.25
74675;BME280;63200;48.810;12.352;2022-12-18T04:36:47;98829.75;;;-5.78;78.23
74675;BME280;63200;48.810;12.352;2022-12-18T04:39:12;98856.94;;;-5.58;78.08
74675;BME280;63200;48.810;12.352;2022-12-18T04:41:38;98856.38;;;-5.61;78.38
74675;BME280;63200;48.810;12.352;2022-12-18T04:44:04;98853.59;;;-5.60;78.42
74675;BME280;63200;48.810;12.352;2022-12-18T04:46:29;98863.19;;;-5.59;78.04
74675;BME280;63200;48.810;12.352;2022-12-18T04:48:55;98865.66;;;-5.47;77.79
74675;BME280;63200;48.810;12.352;2022-12-18T04:51:20;98886.09;;;-5.40;77.61
74675;BME280;63200;48.810;12.352;2022-12-18T04:53:46;98881.31;;;-5.36;77.49
74675;BME280;63200;48.810;12.352;2022-12-18T04:56:13;98841.72;;;-5.56;77.19
74675;BME280;63200;48.810;12.352;2022-12-18T04:58:41;98875.44;;;-5.30;77.36
74675;BME280;63200;48.810;12.352;2022-12-18T05:01:07;98880.84;;;-5.49;77.55
74675;BME280;63200;48.810;12.352;2022-12-18T05:03:33;98894.28;;;-5.61;77.57
74675;BME280;63200;48.810;12.352;2022-12-18T05:06:00;98883.31;;;-5.66;77.91
74675;BME280;63200;48.810;12.352;2022-12-18T05:08:25;98898.06;;;-5.63;77.66
74675;BME280;63200;48.810;12.352;2022-12-18T05:10:58;98903.19;;;-5.62;77.88
74675;BME280;63200;48.810;12.352;2022-12-18T05:13:24;98897.19;;;-5.54;77.69
74675;BME280;63200;48.810;12.352;2022-12-18T05:15:53;98895.66;;;-5.57;77.47
74675;BME280;63200;48.810;12.352;2022-12-18T05:18:18;98884.75;;;-5.54;77.80
74675;BME280;63200;48.810;12.352;2022-12-18T05:20:44;98895.34;;;-5.54;77.79
74675;BME280;63200;48.810;12.352;2022-12-18T05:23:09;98896.16;;;-5.43;77.78
74675;BME280;63200;48.810;12.352;2022-12-18T05:25:34;98904.22;;;-5.45;77.77
74675;BME280;63200;48.810;12.352;2022-12-18T05:28:00;98910.16;;;-5.33;77.61
74675;BME280;63200;48.810;12.352;2022-12-18T05:30:25;98914.34;;;-5.30;77.23
74675;BME280;63200;48.810;12.352;2022-12-18T05:32:51;98920.00;;;-5.25;77.30
74675;BME280;63200;48.810;12.352;2022-12-18T05:35:16;98913.56;;;-5.23;76.76
74675;BME280;63200;48.810;12.352;2022-12-18T05:37:42;98891.41;;;-5.22;76.96
74675;BME280;63200;48.810;12.352;2022-12-18T05:40:07;98899.97;;;-5.28;77.08
74675;BME280;63200;48.810;12.352;2022-12-18T05:42:33;98907.69;;;-5.44;77.46
74675;BME280;63200;48.810;12.352;2022-12-18T05:44:58;98900.50;;;-5.52;78.19
74675;BME280;63200;48.810;12.352;2022-12-18T05:47:23;98862.88;;;-5.83;78.27
74675;BME280;63200;48.810;12.352;2022-12-18T05:49:49;98894.69;;;-5.65;78.53
74675;BME280;63200;48.810;12.352;2022-12-18T05:52:14;98870.69;;;-5.82;78.80
74675;BME280;63200;48.810;12.352;2022-12-18T05:54:40;98864.38;;;-5.99;78.75
74675;BME280;63200;48.810;12.352;2022-12-18T05:57:05;98910.75;;;-5.77;78.62
74675;BME280;63200;48.810;12.352;2022-12-18T05:59:30;98912.88;;;-5.80;78.58
74675;BME280;63200;48.810;12.352;2022-12-18T06:01:56;98909.63;;;-5.74;78.57
74675;BME280;63200;48.810;12.352;2022-12-18T06:04:21;98902.09;;;-5.69;78.38
74675;BME280;63200;48.810;12.352;2022-12-18T06:06:46;98913.78;;;-5.62;78.13
74675;BME280;63200;48.810;12.352;2022-12-18T06:09:12;98920.84;;;-5.62;78.49
74675;BME280;63200;48.810;12.352;2022-12-18T06:11:37;98921.97;;;-5.65;78.28
74675;BME280;63200;48.810;12.352;2022-12-18T06:14:04;98902.34;;;-5.62;77.75
74675;BME280;63200;48.810;12.352;2022-12-18T06:16:30;98931.69;;;-5.46;77.73
74675;BME280;63200;48.810;12.352;2022-12-18T06:19:00;98938.34;;;-5.42;77.69
74675;BME280;63200;48.810;12.352;2022-12-18T06:21:26;98924.84;;;-5.48;77.77
74675;BME280;63200;48.810;12.352;2022-12-18T06:23:52;98919.50;;;-5.39;77.09
74675;BME280;63200;48.810;12.352;2022-12-18T06:26:17;98916.97;;;-5.58;77.26
74675;BME280;63200;48.810;12.352;2022-12-18T06:28:43;98928.69;;;-5.33;76.64
74675;BME280;63200;48.810;12.352;2022-12-18T06:31:09;98929.03;;;-5.46;77.59
74675;BME280;63200;48.810;12.352;2022-12-18T06:33:35;98881.78;;;-5.69;76.85
74675;BME280;63200;48.810;12.352;2022-12-18T06:36:06;98934.41;;;-5.38;76.96
74675;BME280;63200;48.810;12.352;2022-12-18T06:38:33;98925.94;;;-5.41;77.04
74675;BME280;63200;48.810;12.352;2022-12-18T06:40:59;98931.09;;;-5.40;76.79
74675;BME280;63200;48.810;12.352;2022-12-18T06:43:25;98898.31;;;-5.66;77.25
74675;BME280;63200;48.810;12.352;2022-12-18T06:45:50;98934.88;;;-5.42;77.38
74675;BME280;63200;48.810;12.352;2022-12-18T06:48:20;98901.81;;;-5.66;77.04
74675;BME280;63200;48.810;12.352;2022-12-18T06:50:46;98938.97;;;-5.58;77.39
74675;BME280;63200;48.810;12.352;2022-12-18T06:53:12;98919.38;;;-5.75;77.28
74675;BME280;63200;48.810;12.352;2022-12-18T06:55:37;98940.00;;;-5.41;77.30
74675;BME280;63200;48.810;12.352;2022-12-18T06:58:03;98945.47;;;-5.42;76.69
74675;BME280;63200;48.810;12.352;2022-12-18T07:00:28;98947.81;;;-5.39;76.61
74675;BME280;63200;48.810;12.352;2022-12-18T07:02:53;98908.09;;;-5.67;76.62
74675;BME280;63200;48.810;12.352;2022-12-18T07:05:19;98948.53;;;-5.47;76.27
74675;BME280;63200;48.810;12.352;2022-12-18T07:07:44;98946.91;;;-5.58;76.73
74675;BME280;63200;48.810;12.352;2022-12-18T07:10:09;98957.59;;;-5.49;77.10
74675;BME280;63200;48.810;12.352;2022-12-18T07:12:35;98955.81;;;-5.59;76.86
74675;BME280;63200;48.810;12.352;2022-12-18T07:15:01;98965.50;;;-5.87;77.68
74675;BME280;63200;48.810;12.352;2022-12-18T07:17:26;98959.16;;;-6.04;77.99
74675;BME280;63200;48.810;12.352;2022-12-18T07:19:51;98963.69;;;-5.87;77.97
74675;BME280;63200;48.810;12.352;2022-12-18T07:22:17;98973.41;;;-5.77;77.99
74675;BME280;63200;48.810;12.352;2022-12-18T07:24:42;98978.41;;;-5.74;77.44
74675;BME280;63200;48.810;12.352;2022-12-18T07:27:07;98962.41;;;-5.82;77.24
74675;BME280;63200;48.810;12.352;2022-12-18T07:29:33;98967.41;;;-5.70;77.32
74675;BME280;63200;48.810;12.352;2022-12-18T07:31:58;98977.44;;;-5.73;77.59
74675;BME280;63200;48.810;12.352;2022-12-18T07:34:23;98981.72;;;-5.53;77.24
74675;BME280;63200;48.810;12.352;2022-12-18T07:36:49;98989.06;;;-5.46;76.84
74675;BME280;63200;48.810;12.352;2022-12-18T07:39:14;98991.19;;;-5.50;76.72
74675;BME280;63200;48.810;12.352;2022-12-18T07:41:39;99000.59;;;-5.38;76.29
74675;BME280;63200;48.810;12.352;2022-12-18T07:44:11;98992.50;;;-5.36;76.84
74675;BME280;63200;48.810;12.352;2022-12-18T07:46:36;98991.97;;;-5.40;76.40
74675;BME280;63200;48.810;12.352;2022-12-18T07:49:02;98942.31;;;-5.65;76.41
74675;BME280;63200;48.810;12.352;2022-12-18T07:51:27;98977.78;;;-5.48;77.24
74675;BME280;63200;48.810;12.352;2022-12-18T07:53:52;98964.56;;;-5.48;76.72
74675;BME280;63200;48.810;12.352;2022-12-18T07:56:18;98958.88;;;-5.54;76.96
74675;BME280;63200;48.810;12.352;2022-12-18T07:58:44;98971.28;;;-5.54;76.84
74675;BME280;63200;48.810;12.352;2022-12-18T08:01:11;98935.75;;;-5.61;77.21
74675;BME280;63200;48.810;12.352;2022-12-18T08:03:37;98963.84;;;-5.41;76.26
74675;BME280;63200;48.810;12.352;2022-12-18T08:06:05;98970.81;;;-5.49;76.82
74675;BME280;63200;48.810;12.352;2022-12-18T08:08:32;98970.53;;;-5.46;76.51
74675;BME280;63200;48.810;12.352;2022-12-18T08:10:58;98940.88;;;-5.50;76.54
74675;BME280;63200;48.810;12.352;2022-12-18T08:13:24;98985.31;;;-5.16;76.16
74675;BME280;63200;48.810;12.352;2022-12-18T08:16:00;98983.63;;;-5.07;75.62
74675;BME280;63200;48.810;12.352;2022-12-18T08:18:26;98986.56;;;-5.10;75.22
74675;BME280;63200;48.810;12.352;2022-12-18T08:20:51;98980.63;;;-5.22;75.60
74675;BME280;63200;48.810;12.352;2022-12-18T08:23:17;98987.19;;;-4.98;75.51
74675;BME280;63200;48.810;12.352;2022-12-18T08:25:42;98994.59;;;-5.02;74.67
74675;BME280;63200;48.810;12.352;2022-12-18T08:28:07;98981.50;;;-5.04;74.74
74675;BME280;63200;48.810;12.352;2022-12-18T08:30:33;98996.22;;;-4.91;74.42
74675;BME280;63200;48.810;12.352;2022-12-18T08:32:58;98997.88;;;-4.90;74.71
74675;BME280;63200;48.810;12.352;2022-12-18T08:35:23;99007.38;;;-4.97;74.41
74675;BME280;63200;48.810;12.352;2022-12-18T08:37:49;99007.94;;;-4.94;75.12
74675;BME280;63200;48.810;12.352;2022-12-18T08:40:15;99005.13;;;-4.92;73.98
74675;BME280;63200;48.810;12.352;2022-12-18T08:42:40;98996.50;;;-4.94;74.23
74675;BME280;63200;48.810;12.352;2022-12-18T08:45:26;99016.47;;;-4.72;74.17
74675;BME280;63200;48.810;12.352;2022-12-18T08:47:51;99029.44;;;-4.69;73.75
74675;BME280;63200;48.810;12.352;2022-12-18T08:50:17;99034.56;;;-4.68;73.38
74675;BME280;63200;48.810;12.352;2022-12-18T08:52:42;99040.19;;;-4.53;73.24
74675;BME280;63200;48.810;12.352;2022-12-18T08:55:08;98988.25;;;-4.91;72.86
74675;BME280;63200;48.810;12.352;2022-12-18T08:57:34;99032.00;;;-4.77;73.28
74675;BME280;63200;48.810;12.352;2022-12-18T09:00:00;99026.81;;;-5.07;73.96
74675;BME280;63200;48.810;12.352;2022-12-18T09:02:25;99030.84;;;-5.03;74.53
74675;BME280;63200;48.810;12.352;2022-12-18T09:04:50;99038.03;;;-4.95;73.95
74675;BME280;63200;48.810;12.352;2022-12-18T09:07:16;99036.19;;;-4.85;73.88
74675;BME280;63200;48.810;12.352;2022-12-18T09:09:41;98975.50;;;-5.06;73.76
74675;BME280;63200;48.810;12.352;2022-12-18T09:12:06;99037.16;;;-4.86;73.10
74675;BME280;63200;48.810;12.352;2022-12-18T09:14:32;99037.91;;;-4.65;73.81
74675;BME280;63200;48.810;12.352;2022-12-18T09:16:57;99039.25;;;-4.33;73.04
74675;BME280;63200;48.810;12.352;2022-12-18T09:19:23;98959.28;;;-4.93;72.21
74675;BME280;63200;48.810;12.352;2022-12-18T09:21:48;99035.69;;;-4.42;72.03
74675;BME280;63200;48.810;12.352;2022-12-18T09:24:16;99028.84;;;-4.63;72.47
74675;BME280;63200;48.810;12.352;2022-12-18T09:26:41;99025.69;;;-4.76;73.03
74675;BME280;63200;48.810;12.352;2022-12-18T09:29:07;99016.09;;;-4.77;73.00
74675;BME280;63200;48.810;12.352;2022-12-18T09:31:33;98939.78;;;-5.20;73.36
74675;BME280;63200;48.810;12.352;2022-12-18T09:33:59;99004.06;;;-4.72;72.72
74675;BME280;63200;48.810;12.352;2022-12-18T09:36:24;99000.13;;;-4.68;72.37
74675;BME280;63200;48.810;12.352;2022-12-18T09:38:50;99016.34;;;-4.53;72.96
74675;BME280;63200;48.810;12.352;2022-12-18T09:44:01;98969.56;;;-5.18;73.22
74675;BME280;63200;48.810;12.352;2022-12-18T09:46:31;99020.84;;;-5.09;73.59
74675;BME280;63200;48.810;12.352;2022-12-18T09:49:01;98971.47;;;-5.38;74.00
74675;BME280;63200;48.810;12.352;2022-12-18T09:51:44;99010.25;;;-5.09;73.74
74675;BME280;63200;48.810;12.352;2022-12-18T09:54:45;98991.31;;;-5.14;73.17
74675;BME280;63200;48.810;12.352;2022-12-18T09:57:18;98961.78;;;-5.19;72.61
74675;BME280;63200;48.810;12.352;2022-12-18T09:59:50;99004.84;;;-4.61;72.87
74675;BME280;63200;48.810;12.352;2022-12-18T10:02:20;98968.88;;;-4.64;71.89
74675;BME280;63200;48.810;12.352;2022-12-18T10:04:57;98994.00;;;-4.68;72.18
74675;BME280;63200;48.810;12.352;2022-12-18T10:07:43;98977.78;;;-4.65;72.01
74675;BME280;63200;48.810;12.352;2022-12-18T10:10:24;98994.59;;;-4.74;72.13
74675;BME280;63200;48.810;12.352;2022-12-18T10:13:01;99000.28;;;-4.69;72.98
74675;BME280;63200;48.810;12.352;2022-12-18T10:21:31;98997.44;;;-4.86;72.98
74675;BME280;63200;48.810;12.352;2022-12-18T10:26:48;98976.97;;;-4.47;73.15
74675;BME280;63200;48.810;12.352;2022-12-18T10:29:15;98973.63;;;-4.13;71.63
74675;BME280;63200;48.810;12.352;2022-12-18T10:31:41;98964.47;;;-4.19;70.93
74675;BME280;63200;48.810;12.352;2022-12-18T10:34:13;98974.22;;;-4.02;70.22
74675;BME280;63200;48.810;12.352;2022-12-18T10:36:39;98923.78;;;-4.28;69.41
74675;BME280;63200;48.810;12.352;2022-12-18T10:39:34;98988.19;;;-4.18;70.33
74675;BME280;63200;48.810;12.352;2022-12-18T10:42:19;98985.66;;;-4.01;69.85
74675;BME280;63200;48.810;12.352;2022-12-18T10:44:45;98981.75;;;-4.15;70.37
74675;BME280;63200;48.810;12.352;2022-12-18T10:47:14;98959.16;;;-4.19;70.20
74675;BME280;63200;48.810;12.352;2022-12-18T10:49:49;98928.59;;;-4.49;70.21
74675;BME280;63200;48.810;12.352;2022-12-18T10:52:21;98975.91;;;-4.00;70.35
74675;BME280;63200;48.810;12.352;2022-12-18T10:55:13;98971.50;;;-4.28;70.06
74675;BME280;63200;48.810;12.352;2022-12-18T10:57:41;98966.44;;;-4.21;70.21
74675;BME280;63200;48.810;12.352;2022-12-18T11:00:26;98962.19;;;-4.32;70.50
74675;BME280;63200;48.810;12.352;2022-12-18T11:02:53;98940.25;;;-4.60;71.13
74675;BME280;63200;48.810;12.352;2022-12-18T11:05:29;98938.19;;;-4.66;72.34
74675;BME280;63200;48.810;12.352;2022-12-18T11:07:55;98941.00;;;-4.50;71.46
74675;BME280;63200;48.810;12.352;2022-12-18T11:10:26;98946.81;;;-4.46;71.63
74675;BME280;63200;48.810;12.352;2022-12-18T11:12:53;98946.97;;;-4.48;71.03
74675;BME280;63200;48.810;12.352;2022-12-18T11:15:22;98950.06;;;-4.53;71.16
74675;BME280;63200;48.810;12.352;2022-12-18T11:17:50;98880.78;;;-4.94;71.45
74675;BME280;63200;48.810;12.352;2022-12-18T11:22:58;98938.44;;;-4.42;70.59
74675;BME280;63200;48.810;12.352;2022-12-18T11:25:24;98956.69;;;-4.21;70.74
74675;BME280;63200;48.810;12.352;2022-12-18T11:28:00;98947.34;;;-3.80;70.17
74675;BME280;63200;48.810;12.352;2022-12-18T11:30:29;98961.88;;;-4.11;69.80
74675;BME280;63200;48.810;12.352;2022-12-18T11:33:15;98959.91;;;-3.82;69.03
74675;BME280;63200;48.810;12.352;2022-12-18T11:35:49;98914.13;;;-4.11;68.79
74675;BME280;63200;48.810;12.352;2022-12-18T11:38:42;98962.34;;;-3.71;68.81
74675;BME280;63200;48.810;12.352;2022-12-18T11:43:55;98951.47;;;-3.25;67.72
74675;BME280;63200;48.810;12.352;2022-12-18T11:46:34;98948.50;;;-3.14;67.13
74675;BME280;63200;48.810;12.352;2022-12-18T11:49:36;98952.28;;;-3.25;66.73
74675;BME280;63200;48.810;12.352;2022-12-18T11:52:13;98955.28;;;-3.28;67.19
74675;BME280;63200;48.810;12.352;2022-12-18T11:54:40;98955.84;;;-3.08;66.93
74675;BME280;63200;48.810;12.352;2022-12-18T11:57:09;98951.59;;;-3.27;66.76
74675;BME280;63200;48.810;12.352;2022-12-18T11:59:43;98957.75;;;-3.35;66.93
74675;BME280;63200;48.810;12.352;2022-12-18T12:10:40;98944.25;;;-3.07;67.74
74675;BME280;63200;48.810;12.352;2022-12-18T12:21:28;98948.47;;;-3.30;66.88
74675;BME280;63200;48.810;12.352;2022-12-18T12:26:33;98925.94;;;-3.53;67.35
74675;BME280;63200;48.810;12.352;2022-12-18T12:29:14;98946.91;;;-3.07;65.58
74675;BME280;63200;48.810;12.352;2022-12-18T12:31:52;98934.88;;;-3.19;64.69
74675;BME280;63200;48.810;12.352;2022-12-18T12:34:30;98932.78;;;-3.42;64.40
74675;BME280;63200;48.810;12.352;2022-12-18T12:39:47;98924.19;;;-3.96;68.14
74675;BME280;63200;48.810;12.352;2022-12-18T12:42:19;98913.97;;;-4.09;68.48
74675;BME280;63200;48.810;12.352;2022-12-18T12:45:05;98912.50;;;-4.04;68.59
74675;BME280;63200;48.810;12.352;2022-12-18T12:47:38;98906.75;;;-3.38;65.76
74675;BME280;63200;48.810;12.352;2022-12-18T12:50:13;98916.47;;;-3.12;64.95
74675;BME280;63200;48.810;12.352;2022-12-18T12:52:40;98909.09;;;-3.70;65.61
74675;BME280;63200;48.810;12.352;2022-12-18T12:55:14;98909.44;;;-4.17;67.35
74675;BME280;63200;48.810;12.352;2022-12-18T13:00:17;98918.56;;;-4.74;68.69
74675;BME280;63200;48.810;12.352;2022-12-18T13:06:18;98918.50;;;-5.28;69.97
74675;BME280;63200;48.810;12.352;2022-12-18T13:09:02;98921.50;;;-4.95;67.83
74675;BME280;63200;48.810;12.352;2022-12-18T13:11:44;98920.13;;;-5.55;70.90
74675;BME280;63200;48.810;12.352;2022-12-18T13:14:37;98917.91;;;-5.87;71.96
74675;BME280;63200;48.810;12.352;2022-12-18T13:19:50;98921.66;;;-5.90;72.67
74675;BME280;63200;48.810;12.352;2022-12-18T13:22:22;98921.03;;;-6.01;73.18
74675;BME280;63200;48.810;12.352;2022-12-18T13:24:48;98886.13;;;-6.15;72.74
74675;BME280;63200;48.810;12.352;2022-12-18T13:38:33;98913.13;;;-5.83;72.66
74675;BME280;63200;48.810;12.352;2022-12-18T13:46:06;98882.78;;;-6.17;73.17
74675;BME280;63200;48.810;12.352;2022-12-18T13:48:50;98912.53;;;-6.05;73.17
74675;BME280;63200;48.810;12.352;2022-12-18T13:51:17;98918.13;;;-6.08;73.45
74675;BME280;63200;48.810;12.352;2022-12-18T13:53:44;98919.44;;;-5.94;72.80
74675;BME280;63200;48.810;12.352;2022-12-18T13:56:26;98924.31;;;-5.90;72.50
74675;BME280;63200;48.810;12.352;2022-12-18T14:01:59;98917.72;;;-6.13;72.74
74675;BME280;63200;48.810;12.352;2022-12-18T14:04:26;98916.59;;;-6.11;72.66
74675;BME280;63200;48.810;12.352;2022-12-18T14:06:56;98924.81;;;-6.24;72.81
74675;BME280;63200;48.810;12.352;2022-12-18T14:09:28;98917.16;;;-6.37;73.40
74675;BME280;63200;48.810;12.352;2022-12-18T14:11:55;98917.03;;;-6.35;73.29
74675;BME280;63200;48.810;12.352;2022-12-18T14:14:44;98920.78;;;-6.28;72.64
74675;BME280;63200;48.810;12.352;2022-12-18T14:17:13;98909.25;;;-6.27;72.78
74675;BME280;63200;48.810;12.352;2022-12-18T14:19:44;98916.31;;;-6.17;72.37
74675;BME280;63200;48.810;12.352;2022-12-18T14:22:18;98919.25;;;-6.30;72.42
74675;BME280;63200;48.810;12.352;2022-12-18T14:24:45;98913.16;;;-6.41;72.78
74675;BME280;63200;48.810;12.352;2022-12-18T14:27:25;98895.09;;;-6.65;72.86
74675;BME280;63200;48.810;12.352;2022-12-18T14:29:50;98919.56;;;-6.53;73.04
74675;BME280;63200;48.810;12.352;2022-12-18T14:32:18;98873.41;;;-6.78;72.89
74675;BME280;63200;48.810;12.352;2022-12-18T14:37:16;98892.84;;;-6.30;71.55
74675;BME280;63200;48.810;12.352;2022-12-18T14:39:52;98892.44;;;-6.45;72.29